Schneifelwetter: Wetterstation Hallschlag, 537 m . NN
Wetterdaten: Dienstag, 12.04.2011
Datum Zeit Temp. A. Feuchte A. Luftdruck Regen Wind Richtung Richtung Sonnenschein Helligkeit T Regen Taupunkt Windchill
12.04.2011 00:10 11,1 C 77 % 1017 hPa 0,0 l/m 15,8 km/h (3 Bft) W22.5 275 0 min 0 lux 0,00 min 7,2 C 6,2 C
12.04.2011 00:26 10,8 C 78 % 1017 hPa 0,0 l/m 19,8 km/h (3 Bft) W67.5 260 0 min 0 lux 0,00 min 7,1 C 4,4 C
12.04.2011 00:41 10,6 C 79 % 1017 hPa 0,0 l/m 16,8 km/h (3 Bft) W-SW22.5 250 0 min 0 lux 0,00 min 7,1 C 5,2 C
12.04.2011 00:56 10,3 C 80 % 1017 hPa 0,0 l/m 13,1 km/h (3 Bft) W22.5 265 0 min 0 lux 0,00 min 7,0 C 6,3 C
12.04.2011 01:11 10,2 C 81 % 1017 hPa 0,0 l/m 31,2 km/h (5 Bft) W22.5 265 0 min 0 lux 0,00 min 7,1 C 0,7 C
12.04.2011 01:26 9,7 C 80 % 1017 hPa 0,0 l/m 30,4 km/h (5 Bft) W45 270 0 min 0 lux 0,00 min 6,4 C 0,1 C
12.04.2011 01:41 9,5 C 83 % 1017 hPa 0,0 l/m 36,0 km/h (5 Bft) W22.5 270 0 min 0 lux 0,00 min 6,8 C -1,2 C
12.04.2011 01:56 9,3 C 86 % 1017 hPa 0,0 l/m 32,4 km/h (5 Bft) W45 275 0 min 0 lux 0,00 min 7,1 C -0,8 C
12.04.2011 02:11 9,0 C 88 % 1017 hPa 0,0 l/m 26,6 km/h (4 Bft) W22.5 265 0 min 0 lux 0,00 min 7,1 C 0,1 C
12.04.2011 02:26 8,9 C 89 % 1017 hPa 0,0 l/m 22,6 km/h (4 Bft) W45 275 0 min 0 lux 0,00 min 7,2 C 1,0 C
12.04.2011 02:41 8,2 C 84 % 1017 hPa 0,0 l/m 46,8 km/h (6 Bft) W-NW45 290 0 min 0 lux 0,00 min 5,7 C -4,7 C
12.04.2011 02:56 6,8 C 87 % 1017 hPa 0,0 l/m 37,9 km/h (5 Bft) W-NW67.5 285 0 min 0 lux 0,00 min 4,8 C -5,5 C
12.04.2011 03:11 6,4 C 88 % 1017 hPa 0,0 l/m 28,1 km/h (4 Bft) W45 280 0 min 0 lux 0,00 min 4,6 C -3,9 C
12.04.2011 03:26 6,2 C 88 % 1017 hPa 0,3 l/m 28,3 km/h (4 Bft) W67.5 280 0 min 0 lux 15,00 min 4,4 C -4,3 C
12.04.2011 03:41 5,9 C 88 % 1018 hPa 0,0 l/m 30,5 km/h (5 Bft) W45 280 0 min 0 lux 0,00 min 4,1 C -5,2 C
12.04.2011 03:56 5,7 C 88 % 1018 hPa 0,3 l/m 26,7 km/h (4 Bft) W-NW45 285 0 min 0 lux 15,00 min 3,9 C -4,5 C
12.04.2011 04:11 5,6 C 88 % 1018 hPa 0,0 l/m 21,1 km/h (4 Bft) W67.5 270 0 min 0 lux 0,00 min 3,8 C -2,8 C
12.04.2011 04:26 5,6 C 89 % 1018 hPa 0,0 l/m 27,1 km/h (4 Bft) W45 280 0 min 0 lux 0,00 min 3,9 C -4,8 C
12.04.2011 04:41 5,6 C 89 % 1018 hPa 0,0 l/m 19,3 km/h (3 Bft) W45 280 0 min 0 lux 0,00 min 3,9 C -2,1 C
12.04.2011 04:56 5,6 C 89 % 1018 hPa 0,0 l/m 19,8 km/h (3 Bft) W45 275 0 min 0 lux 0,00 min 3,9 C -2,3 C
12.04.2011 05:11 5,6 C 90 % 1018 hPa 0,0 l/m 20,6 km/h (4 Bft) W67.5 270 0 min 0 lux 0,00 min 4,1 C -2,6 C
12.04.2011 05:26 5,4 C 89 % 1018 hPa 0,0 l/m 22,1 km/h (4 Bft) W45 280 0 min 0 lux 0,00 min 3,7 C -3,4 C
12.04.2011 05:41 5,3 C 89 % 1018 hPa 0,0 l/m 16,2 km/h (3 Bft) W-NW45 285 0 min 0 lux 0,00 min 3,6 C -1,1 C
12.04.2011 05:56 5,3 C 89 % 1018 hPa 0,0 l/m 19,8 km/h (3 Bft) W45 275 0 min 0 lux 0,00 min 3,6 C -2,7 C
12.04.2011 06:11 5,2 C 88 % 1018 hPa 0,0 l/m 19,0 km/h (3 Bft) W-NW45 290 0 min 0 lux 0,00 min 3,4 C -2,5 C
12.04.2011 06:26 5,3 C 89 % 1018 hPa 0,0 l/m 25,0 km/h (4 Bft) W45 280 0 min 0 lux 0,00 min 3,6 C -4,5 C
12.04.2011 06:41 5,2 C 89 % 1018 hPa 0,0 l/m 22,4 km/h (4 Bft) W-NW22.5 285 0 min 254 lux 0,00 min 3,5 C -3,8 C
12.04.2011 06:56 5,1 C 89 % 1018 hPa 0,0 l/m 25,7 km/h (4 Bft) W22.5 280 0 min 673 lux 0,00 min 3,4 C -5,0 C
12.04.2011 07:11 5,2 C 89 % 1018 hPa 0,0 l/m 22,2 km/h (4 Bft) W-NW45 285 0 min 970 lux 0,00 min 3,5 C -3,7 C
12.04.2011 07:26 5,1 C 89 % 1018 hPa 0,3 l/m 24,2 km/h (4 Bft) W22.5 270 0 min 1,32 klux 15,00 min 3,4 C -4,6 C
12.04.2011 07:41 4,9 C 89 % 1019 hPa 0,0 l/m 17,8 km/h (3 Bft) W22.5 270 0 min 2,61 klux 0,00 min 3,2 C -2,4 C
12.04.2011 08:02 5,4 C 89 % 1019 hPa 0,0 l/m 22,3 km/h (4 Bft) W-NW45 285 0 min 10,9 klux 0,00 min 3,7 C -3,5 C
12.04.2011 08:17 5,7 C 89 % 1019 hPa 0,0 l/m 18,8 km/h (3 Bft) W22.5 270 0 min 18,4 klux 0,00 min 4,0 C -1,8 C
12.04.2011 08:32 5,8 C 88 % 1019 hPa 0,0 l/m 24,5 km/h (4 Bft) W-NW45 285 0 min 14,9 klux 0,00 min 4,0 C -3,7 C
12.04.2011 08:47 5,9 C 86 % 1019 hPa 0,0 l/m 25,3 km/h (4 Bft) W22.5 270 0 min 16,8 klux 0,00 min 3,7 C -3,8 C
12.04.2011 09:02 5,6 C 86 % 1019 hPa 0,6 l/m 23,8 km/h (4 Bft) W22.5 270 0 min 14,1 klux 15,00 min 3,4 C -3,7 C
12.04.2011 09:17 5,3 C 87 % 1019 hPa 0,3 l/m 30,7 km/h (5 Bft) W45 275 0 min 12,6 klux 15,00 min 3,3 C -6,1 C
12.04.2011 09:32 5,6 C 88 % 1019 hPa 0,3 l/m 25,3 km/h (4 Bft) W45 275 0 min 44,8 klux 15,00 min 3,8 C -4,2 C
12.04.2011 09:47 6,0 C 87 % 1020 hPa 0,0 l/m 24,1 km/h (4 Bft) W45 280 0 min 26,3 klux 0,00 min 4,0 C -3,3 C
12.04.2011 10:02 5,9 C 86 % 1020 hPa 0,0 l/m 23,4 km/h (4 Bft) W-NW45 285 0 min 15,7 klux 0,00 min 3,7 C -3,2 C
12.04.2011 10:17 5,3 C 85 % 1020 hPa 0,9 l/m 22,3 km/h (4 Bft) W-NW45 285 0 min 26,6 klux 15,00 min 3,0 C -3,6 C
12.04.2011 10:32 5,6 C 86 % 1020 hPa 0,0 l/m 22,3 km/h (4 Bft) NW45 305 0 min 44,1 klux 0,00 min 3,4 C -3,2 C
12.04.2011 10:47 6,7 C 86 % 1020 hPa 0,0 l/m 31,2 km/h (5 Bft) W-NW45 285 15 min 81,2 klux 0,00 min 4,5 C -4,3 C
12.04.2011 11:02 6,1 C 83 % 1020 hPa 0,0 l/m 29,3 km/h (5 Bft) W45 270 0 min 20,3 klux 0,00 min 3,4 C -4,7 C
12.04.2011 11:17 6,9 C 82 % 1020 hPa 0,0 l/m 34,7 km/h (5 Bft) W45 275 15 min 70,2 klux 0,00 min 4,0 C -4,7 C
12.04.2011 11:31 7,0 C 77 % 1020 hPa 0,0 l/m 34,1 km/h (5 Bft) W45 280 14 min 72,8 klux 0,00 min 3,2 C -4,5 C
12.04.2011 11:47 7,6 C 76 % 1020 hPa 0,0 l/m 34,9 km/h (5 Bft) W22.5 280 16 min 91,0 klux 0,00 min 3,6 C -3,8 C
12.04.2011 12:02 5,9 C 79 % 1021 hPa 0,0 l/m 40,0 km/h (6 Bft) NW45 325 0 min 35,2 klux 0,00 min 2,5 C -7,2 C
12.04.2011 12:17 6,7 C 80 % 1021 hPa 0,0 l/m 29,4 km/h (5 Bft) N-NW67.5 335 15 min 89,9 klux 0,00 min 3,5 C -3,8 C
12.04.2011 12:32 5,4 C 81 % 1021 hPa 0,0 l/m 33,8 km/h (5 Bft) W-NW67.5 295 0 min 17,0 klux 0,00 min 2,4 C -6,7 C
12.04.2011 12:47 5,6 C 85 % 1021 hPa 0,0 l/m 26,8 km/h (4 Bft) W45 275 0 min 49,3 klux 0,00 min 3,3 C -4,7 C
12.04.2011 13:02 5,4 C 82 % 1021 hPa 0,0 l/m 33,4 km/h (5 Bft) W45 280 15 min 85,9 klux 0,00 min 2,6 C -6,6 C
12.04.2011 13:17 6,9 C 82 % 1021 hPa 0,0 l/m 24,2 km/h (4 Bft) N-NW22.5 340 15 min 82,4 klux 0,00 min 4,0 C -2,1 C
12.04.2011 13:32 8,0 C 79 % 1021 hPa 0,0 l/m 22,9 km/h (4 Bft) N-NW45 335 15 min 99 klux 0,00 min 4,6 C -0,3 C
12.04.2011 13:47 6,2 C 75 % 1022 hPa 0,0 l/m 44,7 km/h (6 Bft) W67.5 275 0 min 16,0 klux 0,00 min 2,1 C -7,5 C
12.04.2011 14:02 6,0 C 79 % 1022 hPa 0,0 l/m 26,0 km/h (4 Bft) W22.5 280 15 min 85,8 klux 0,00 min 2,6 C -3,9 C
12.04.2011 14:17 6,5 C 79 % 1022 hPa 0,0 l/m 25,6 km/h (4 Bft) NW67.5 320 15 min 90,3 klux 0,00 min 3,1 C -3,1 C
12.04.2011 14:32 7,4 C 77 % 1021 hPa 0,0 l/m 30,2 km/h (5 Bft) NW22.5 310 15 min 87,1 klux 0,00 min 3,6 C -3,0 C
12.04.2011 14:47 7,4 C 70 % 1022 hPa 0,0 l/m 28,5 km/h (4 Bft) N-NW45 345 15 min 86,9 klux 0,00 min 2,3 C -2,6 C
12.04.2011 15:02 8,0 C 72 % 1021 hPa 0,0 l/m 35,9 km/h (5 Bft) NW45 315 15 min 94,6 klux 0,00 min 3,3 C -3,4 C
12.04.2011 15:17 7,4 C 68 % 1022 hPa 0,0 l/m 38,3 km/h (5 Bft) N45 350 15 min 86,4 klux 0,00 min 1,9 C -4,7 C
12.04.2011 15:32 5,8 C 76 % 1022 hPa 0,0 l/m 18,2 km/h (3 Bft) W-NW67.5 285 15 min 76,3 klux 0,00 min 1,9 C -1,4 C
12.04.2011 15:47 6,6 C 78 % 1022 hPa 0,0 l/m 24,3 km/h (4 Bft) W-NW45 295 15 min 73,6 klux 0,00 min 3,0 C -2,6 C
12.04.2011 16:02 6,7 C 72 % 1022 hPa 0,0 l/m 37,5 km/h (5 Bft) NW67.5 305 0 min 38,9 klux 0,00 min 2,0 C -5,6 C
12.04.2011 16:17 6,0 C 72 % 1022 hPa 0,0 l/m 38,7 km/h (5 Bft) W-NW67.5 285 15 min 69,1 klux 0,00 min 1,3 C -6,8 C
12.04.2011 16:32 6,0 C 72 % 1022 hPa 0,0 l/m 35,7 km/h (5 Bft) N-NW45 330 15 min 71,3 klux 0,00 min 1,3 C -6,2 C
12.04.2011 16:47 6,4 C 71 % 1022 hPa 0,0 l/m 21,1 km/h (4 Bft) NW67.5 315 15 min 60,0 klux 0,00 min 1,5 C -1,8 C
12.04.2011 17:02 6,4 C 70 % 1022 hPa 0,0 l/m 26,6 km/h (4 Bft) W-NW45 290 15 min 57,9 klux 0,00 min 1,3 C -3,5 C
12.04.2011 17:17 5,9 C 73 % 1022 hPa 0,0 l/m 27,5 km/h (4 Bft) W-NW45 300 0 min 20,6 klux 0,00 min 1,4 C -4,5 C
12.04.2011 17:32 5,4 C 76 % 1022 hPa 0,0 l/m 20,4 km/h (4 Bft) W-NW45 290 0 min 14,2 klux 0,00 min 1,5 C -2,8 C
12.04.2011 17:46 4,9 C 76 % 1022 hPa 0,0 l/m 32,3 km/h (5 Bft) W45 280 0 min 43,9 klux 0,00 min 1,0 C -7,1 C
12.04.2011 18:02 5,2 C 76 % 1022 hPa 0,0 l/m 14,4 km/h (3 Bft) W-NW45 285 0 min 42,6 klux 0,00 min 1,3 C -0,4 C
12.04.2011 18:17 5,6 C 75 % 1022 hPa 0,0 l/m 18,6 km/h (3 Bft) W45 280 0 min 39,2 klux 0,00 min 1,5 C -1,8 C
12.04.2011 18:32 5,3 C 72 % 1022 hPa 0,0 l/m 20,9 km/h (4 Bft) W-NW67.5 295 0 min 7,90 klux 0,00 min 0,7 C -3,1 C
12.04.2011 18:47 4,8 C 70 % 1022 hPa 0,0 l/m 21,8 km/h (4 Bft) W22.5 270 0 min 28,0 klux 0,00 min -0,2 C -4,1 C
12.04.2011 19:02 4,8 C 69 % 1023 hPa 0,0 l/m 28,6 km/h (4 Bft) W-NW45 295 0 min 26,3 klux 0,00 min -0,4 C -6,3 C
12.04.2011 19:17 5,1 C 67 % 1022 hPa 0,0 l/m 25,4 km/h (4 Bft) W-NW67.5 295 0 min 21,6 klux 0,00 min -0,5 C -4,9 C
12.04.2011 19:32 5,2 C 67 % 1023 hPa 1,8 l/m 26,0 km/h (4 Bft) W-NW67.5 295 0 min 17,9 klux 15,00 min -0,4 C -5,0 C
12.04.2011 19:47 5,1 C 68 % 1023 hPa 0,0 l/m 26,1 km/h (4 Bft) W22.5 280 0 min 8,69 klux 0,00 min -0,3 C -5,1 C
12.04.2011 20:02 4,5 C 70 % 1023 hPa 0,0 l/m 20,3 km/h (4 Bft) W22.5 280 0 min 5,97 klux 0,00 min -0,5 C -3,9 C
12.04.2011 20:17 4,0 C 70 % 1023 hPa 0,0 l/m 17,3 km/h (3 Bft) NW22.5 310 0 min 2,03 klux 0,00 min -1,0 C -3,3 C
12.04.2011 20:32 3,3 C 72 % 1023 hPa 0,0 l/m 13,0 km/h (3 Bft) W67.5 265 0 min 757 lux 0,00 min -1,3 C -1,8 C
12.04.2011 20:47 3,0 C 73 % 1023 hPa 0,0 l/m 15,1 km/h (3 Bft) W45 280 0 min 114 lux 0,00 min -1,4 C -3,4 C
12.04.2011 21:01 2,7 C 73 % 1024 hPa 0,0 l/m 21,6 km/h (4 Bft) W-NW45 295 0 min 24 lux 0,00 min -1,6 C -6,8 C
12.04.2011 21:17 2,3 C 75 % 1024 hPa 0,0 l/m 15,1 km/h (3 Bft) W22.5 275 0 min 0 lux 0,00 min -1,7 C -4,3 C
12.04.2011 21:32 2,1 C 76 % 1024 hPa 0,0 l/m 14,6 km/h (3 Bft) W22.5 270 0 min 0 lux 0,00 min -1,7 C -4,2 C
12.04.2011 21:47 2,0 C 77 % 1024 hPa 0,0 l/m 20,2 km/h (4 Bft) W-NW45 285 0 min 0 lux 0,00 min -1,6 C -7,1 C
12.04.2011 22:02 2,3 C 77 % 1024 hPa 0,0 l/m 23,8 km/h (4 Bft) W-NW22.5 285 0 min 0 lux 0,00 min -1,3 C -8,2 C
12.04.2011 22:17 2,0 C 78 % 1023 hPa 0,0 l/m 13,3 km/h (3 Bft) W22.5 265 0 min 0 lux 0,00 min -1,4 C -3,5 C
12.04.2011 22:32 1,9 C 80 % 1023 hPa 0,0 l/m 12,5 km/h (3 Bft) W22.5 270 0 min 0 lux 0,00 min -1,2 C -3,1 C
12.04.2011 22:47 1,8 C 80 % 1023 hPa 0,0 l/m 15,8 km/h (3 Bft) W22.5 280 0 min 0 lux 0,00 min -1,3 C -5,2 C
12.04.2011 23:02 1,6 C 80 % 1023 hPa 0,0 l/m 17,8 km/h (3 Bft) W-NW22.5 285 0 min 0 lux 0,00 min -1,5 C -6,5 C
12.04.2011 23:17 1,5 C 82 % 1023 hPa 0,0 l/m 17,8 km/h (3 Bft) W22.5 270 0 min 0 lux 0,00 min -1,2 C -6,7 C
12.04.2011 23:32 1,3 C 82 % 1023 hPa 0,0 l/m 14,2 km/h (3 Bft) W22.5 275 0 min 0 lux 0,00 min -1,4 C -4,9 C
12.04.2011 23:47 1,1 C 82 % 1023 hPa 0,0 l/m 12,5 km/h (3 Bft) W22.5 260 0 min 0 lux 0,00 min -1,6 C -4,1 C
12.04.2011 23:56 0,7 C 83 % 1023 hPa 0,0 l/m 8,8 km/h (2 Bft) W 260 0 min 0 lux 0,00 min -1,8 C -1,7 C
_ Min-Zeit 23:56 19:17 00:10 - 23:56 - - - - - 23:56 22:02
Minimum _ 0,7 C 67 % 1017 hPa - 8,8 km/h (2 Bft) - - - - - -1,8 C -8,2 C
_ Max-Zeit 00:10 05:11 21:01 19:32 02:41 - - 11:47 13:32 03:26 00:10 00:56
Maximum _ 11,1 C 90 % 1024 hPa 1,8 l/m 46,8 km/h
W-NW (6 Bft)
- - 16 min 99 klux 15,00 min 7,2 C 6,3 C
Durchschnitt _ 5,7 C 81 % 1021 hPa #4,8 l/m 24,7 km/h (4 Bft) W - #5:00 h 24,2 klux #2:00 h 2,6 C -3,4 C